Terminal Aerodrome Forecast
Issued by NWS

Home | Current Version | Previous Version | Text Only | Print | Product List | Glossary On
Versions: 1 2 3 4 5 6 7 8 9 10 11 12 13 14 15
514
FTUS45 KRIW 202321
TAFBPI
TAF
KBPI 202321Z 2100/2124 VRB06KT P6SM VCSH SCT025 BKN040
      TEMPO 2100/2102 5SM -SN BKN025
     FM210200 35005KT P6SM SCT050
     FM211700 VRB06KT P6SM BKN100=

USA.gov is the U.S. government's official web portal to all federal, state and local government web resources and services.